This is the latest recevied weather packets stored in our database for station/object DL3NDS-WX. If no packets are shown the sender has not sent any weather packets the latest 1 day(s).
| Time | Temp. | Humidity | Pressure | Rain* | Wind** | Luminosity | Snow |
|---|---|---|---|---|---|---|---|
| 1777991326 | 19.44° C | 61% | 1007.9 hPa | 0 mm | 0.89 m/s, 314° | 185 W/m² | - |
| 1777991264 | 19.44° C | 62% | 1007.9 hPa | 0 mm | 0.45 m/s, 324° | 185 W/m² | - |
| 1777991204 | 19.44° C | 62% | 1007.9 hPa | 0 mm | 0.89 m/s, 24° | 185 W/m² | - |
| 1777991142 | 19.44° C | 61% | 1007.9 hPa | 0 mm | 1.34 m/s, 328° | 185 W/m² | - |
| 1777991081 | 19.44° C | 60% | 1007.9 hPa | 0 mm | 1.34 m/s, 341° | 186 W/m² | - |
| 1777991019 | 19.44° C | 61% | 1007.9 hPa | 0 mm | 0.89 m/s, 332° | 186 W/m² | - |
| 1777990960 | 19.44° C | 61% | 1007.9 hPa | 0 mm | 1.34 m/s, 33° | 186 W/m² | - |
| 1777990898 | 19.44° C | 62% | 1007.9 hPa | 0 mm | 1.34 m/s, 22° | 186 W/m² | - |
| 1777990837 | 19.44° C | 61% | 1008 hPa | 0 mm | 0.89 m/s, 25° | 190 W/m² | - |
| 1777990775 | 19.44° C | 60% | 1007.9 hPa | 0 mm | 0.89 m/s, 18° | 197 W/m² | - |
| 1777990704 | 19.44° C | 61% | 1007.9 hPa | 0 mm | 0.89 m/s, 332° | 204 W/m² | - |
| 1777990642 | 19.44° C | 61% | 1007.9 hPa | 0 mm | 0.89 m/s, 21° | 214 W/m² | - |
| 1777990584 | 19.44° C | 61% | 1007.9 hPa | 0 mm | 0.89 m/s, 323° | 218 W/m² | - |
| 1777990523 | 19.44° C | 62% | 1008 hPa | 0 mm | 1.34 m/s, 344° | 230 W/m² | - |
| 1777990461 | 19.44° C | 61% | 1008 hPa | 0 mm | 2.68 m/s, 359° | 239 W/m² | - |
| 1777990400 | 19.44° C | 61% | 1008 hPa | 0 mm | 3.58 m/s, 4° | 255 W/m² | - |
| 1777990338 | 19.44° C | 61% | 1008 hPa | 0 mm | 3.58 m/s, 329° | 279 W/m² | - |
| 1777990277 | 19.44° C | 61% | 1008 hPa | 0 mm | 4.02 m/s, 326° | 288 W/m² | - |
| 1777990216 | 19.44° C | 61% | 1008.1 hPa | 0 mm | 4.92 m/s, 332° | 338 W/m² | - |
| 1777990155 | 19.44° C | 61% | 1008 hPa | 0 mm | 3.58 m/s, 316° | 336 W/m² | - |
| 1777990094 | 19.44° C | 62% | 1008.1 hPa | 0 mm | 2.24 m/s, 322° | 283 W/m² | - |
| 1777990032 | 19.44° C | 62% | 1008.1 hPa | 0 mm | 1.79 m/s, 314° | 255 W/m² | - |
| 1777989971 | 19.44° C | 61% | 1008 hPa | 0 mm | 1.79 m/s, 319° | 255 W/m² | - |
| 1777989909 | 19.44° C | 62% | 1008 hPa | 0 mm | 1.34 m/s, 330° | 258 W/m² | - |
| 1777989848 | 19.44° C | 62% | 1008.1 hPa | 0 mm | 1.34 m/s, 313° | 260 W/m² | - |
* Rain latest hour (hover to see other rain measurements)
** Current wind speed in m/s (hover to see current wind gust speed)